createdAt,value
2019-02-02T00:01:56.533Z,40.53
2019-02-02T00:04:26.503Z,42.00
2019-02-02T00:06:56.012Z,42.80
2019-02-02T00:09:25.568Z,41.37
2019-02-02T00:11:55.101Z,42.13
2019-02-02T00:14:24.623Z,43.00
2019-02-02T00:16:54.128Z,43.97
2019-02-02T00:19:23.659Z,43.37
2019-02-02T00:21:53.176Z,44.20
2019-02-02T00:24:22.727Z,44.47
2019-02-02T00:26:52.731Z,44.93
2019-02-02T00:29:22.238Z,43.80
2019-02-02T00:31:51.747Z,44.97
2019-02-02T00:34:21.278Z,47.40
2019-02-02T00:36:50.824Z,45.03
2019-02-02T00:39:20.335Z,48.30
2019-02-02T00:41:50.260Z,44.90
2019-02-02T00:44:19.769Z,44.93
2019-02-02T00:46:49.252Z,43.13
2019-02-02T00:49:18.779Z,47.07
2019-02-02T00:52:07.332Z,44.60
2019-02-02T00:54:36.855Z,44.83
2019-02-02T00:57:06.338Z,45.77
2019-02-02T00:59:35.827Z,44.17
2019-02-02T01:02:05.565Z,43.20
2019-02-02T01:04:35.102Z,45.77
2019-02-02T01:07:05.781Z,46.07
2019-02-02T01:09:35.385Z,44.67
2019-02-02T01:12:05.118Z,42.73
2019-02-02T01:14:34.677Z,43.97
2019-02-02T01:17:04.416Z,44.83
2019-02-02T01:19:34.355Z,45.10
2019-02-02T01:22:03.964Z,45.23
2019-02-02T01:24:33.495Z,45.33
2019-02-02T01:27:03.004Z,46.30
2019-02-02T01:29:32.488Z,45.97
2019-02-02T01:32:01.980Z,44.93
2019-02-02T01:34:31.492Z,45.03
2019-02-02T01:37:01.393Z,46.43
2019-02-02T01:39:31.018Z,44.23
2019-02-02T01:42:00.495Z,48.90
2019-02-02T01:44:30.015Z,43.20
2019-02-02T01:46:59.526Z,43.50
2019-02-02T01:49:29.040Z,43.77
2019-02-02T01:51:58.548Z,45.57
2019-02-02T01:54:28.063Z,43.57
2019-02-02T01:56:57.539Z,43.70
2019-02-02T01:59:27.058Z,41.83
2019-02-02T02:01:56.564Z,42.80
2019-02-02T02:04:26.143Z,45.43
2019-02-02T02:06:55.640Z,42.70
2019-02-02T02:09:25.719Z,38.60
2019-02-02T02:11:55.248Z,41.40
2019-02-02T02:14:24.729Z,40.53
2019-02-02T02:16:54.235Z,42.40
2019-02-02T02:19:23.837Z,43.70
2019-02-02T02:21:53.725Z,42.83
2019-02-02T02:24:23.616Z,43.67
2019-02-02T02:26:53.155Z,43.50
2019-02-02T02:29:22.776Z,41.83
2019-02-02T02:31:52.786Z,42.93
2019-02-02T02:34:22.293Z,42.43
2019-02-02T02:36:51.956Z,41.40
2019-02-02T02:39:22.157Z,42.33
2019-02-02T02:41:51.719Z,40.30
2019-02-02T02:44:21.265Z,41.30
2019-02-02T02:46:50.784Z,41.70
2019-02-02T02:49:20.713Z,42.60
2019-02-02T02:51:50.238Z,39.87
2019-02-02T02:54:20.121Z,42.90
2019-02-02T02:56:49.935Z,41.83
2019-02-02T02:59:19.784Z,42.10
2019-02-02T03:01:49.304Z,40.27
2019-02-02T03:04:18.877Z,37.53
2019-02-02T03:06:48.417Z,39.67
2019-02-02T03:09:18.260Z,39.70
2019-02-02T03:11:47.801Z,40.20
2019-02-02T03:14:17.331Z,38.30
2019-02-02T03:16:47.244Z,37.57
2019-02-02T03:19:16.771Z,38.20
2019-02-02T03:21:46.289Z,35.63
2019-02-02T03:24:15.804Z,40.10
2019-02-02T03:26:45.307Z,39.50
2019-02-02T03:29:14.862Z,38.90
2019-02-02T03:31:48.471Z,38.53
2019-02-02T03:34:15.599Z,37.10
2019-02-02T03:36:45.133Z,38.23
2019-02-02T03:39:14.608Z,37.10
2019-02-02T03:41:44.494Z,37.13
2019-02-02T03:44:13.986Z,36.67
2019-02-02T03:46:43.505Z,35.60
2019-02-02T03:49:13.025Z,36.17
2019-02-02T03:51:42.960Z,36.00
2019-02-02T03:54:12.447Z,36.83
2019-02-02T03:56:41.952Z,34.03
2019-02-02T03:59:11.483Z,33.80
2019-02-02T04:01:40.963Z,33.77
2019-02-02T04:04:10.482Z,32.70
2019-02-02T04:06:40.262Z,33.60
2019-02-02T04:09:09.881Z,33.07
2019-02-02T04:11:39.436Z,32.37
2019-02-02T04:14:09.061Z,32.27
2019-02-02T04:16:39.002Z,33.73
2019-02-02T04:19:08.463Z,33.90
2019-02-02T04:21:38.359Z,34.87
2019-02-02T04:24:07.965Z,33.50
2019-02-02T04:26:37.900Z,32.07
2019-02-02T04:29:17.629Z,34.90
2019-02-02T04:31:38.694Z,34.30
2019-02-02T04:34:08.191Z,35.23
2019-02-02T04:36:37.732Z,34.60
2019-02-02T04:39:08.604Z,33.70
2019-02-02T04:41:38.125Z,36.30
2019-02-02T04:44:07.612Z,34.57
2019-02-02T04:46:37.114Z,35.17
2019-02-02T04:49:06.572Z,36.97
2019-02-02T04:51:36.124Z,35.80
2019-02-02T04:54:06.063Z,35.97
2019-02-02T04:56:35.580Z,35.30
2019-02-02T04:59:05.316Z,34.00
2019-02-02T05:01:34.828Z,36.53
2019-02-02T05:04:04.934Z,37.70
2019-02-02T05:06:34.517Z,37.67
2019-02-02T05:09:05.476Z,35.60
2019-02-02T05:11:35.009Z,36.67
2019-02-02T05:14:04.655Z,37.60
2019-02-02T05:16:34.607Z,35.97
2019-02-02T05:19:04.402Z,39.43
2019-02-02T05:21:33.965Z,39.40
2019-02-02T05:24:03.528Z,37.40
2019-02-02T05:26:33.038Z,40.53
2019-02-02T05:29:02.559Z,36.93
2019-02-02T05:31:32.088Z,39.10
2019-02-02T05:34:01.576Z,37.57
2019-02-02T05:36:31.111Z,39.23
2019-02-02T05:39:00.616Z,38.43
2019-02-02T05:41:30.139Z,40.53
2019-02-02T05:44:00.363Z,40.40
2019-02-02T05:46:30.271Z,37.93
2019-02-02T05:48:59.891Z,39.20
2019-02-02T05:51:29.413Z,38.47
2019-02-02T05:53:59.084Z,37.50
2019-02-02T05:56:29.236Z,37.90
2019-02-02T05:58:58.741Z,39.37
2019-02-02T06:01:30.096Z,37.70
2019-02-02T06:03:59.430Z,40.43
2019-02-02T06:06:29.333Z,38.70
2019-02-02T06:08:59.934Z,41.13
2019-02-02T06:11:30.036Z,39.47
2019-02-02T06:13:59.869Z,44.27
2019-02-02T06:16:29.647Z,40.67
2019-02-02T06:18:59.169Z,42.27
2019-02-02T06:21:28.914Z,44.43
2019-02-02T06:23:58.874Z,42.60
2019-02-02T06:26:28.493Z,43.33
2019-02-02T06:28:57.997Z,43.77
2019-02-02T06:31:27.541Z,44.60
2019-02-02T06:33:57.108Z,43.90
2019-02-02T06:36:26.636Z,45.57
2019-02-02T06:38:56.284Z,43.73
2019-02-02T06:41:25.783Z,44.90
2019-02-02T06:43:55.298Z,46.90
2019-02-02T06:46:24.829Z,45.50
2019-02-02T06:48:54.291Z,47.10
2019-02-02T06:51:23.811Z,47.87
2019-02-02T06:53:53.348Z,47.37
2019-02-02T06:56:23.294Z,49.03
2019-02-02T06:58:53.897Z,50.80
2019-02-02T07:01:23.724Z,48.03
2019-02-02T07:03:54.013Z,48.87
2019-02-02T07:06:23.992Z,45.63
2019-02-02T07:08:53.864Z,49.03
2019-02-02T07:11:23.390Z,49.77
2019-02-02T07:13:52.898Z,50.80
2019-02-02T07:16:22.446Z,47.40
2019-02-02T07:18:52.079Z,49.50
2019-02-02T07:21:21.969Z,49.20
2019-02-02T07:23:51.478Z,49.60
2019-02-02T07:26:21.009Z,51.03
2019-02-02T07:28:50.525Z,51.93
2019-02-02T07:31:20.069Z,52.87
2019-02-02T07:33:49.621Z,52.70
2019-02-02T07:36:19.165Z,56.30
2019-02-02T07:38:49.029Z,56.80
2019-02-02T07:41:18.994Z,51.47
2019-02-02T07:43:48.532Z,53.33
2019-02-02T07:46:18.062Z,56.57
2019-02-02T07:48:47.931Z,57.30
2019-02-02T07:51:17.430Z,56.27
2019-02-02T07:53:46.967Z,59.50
2019-02-02T07:56:17.040Z,59.07
2019-02-02T07:58:46.667Z,57.00
2019-02-02T08:01:16.596Z,58.67
2019-02-02T08:03:46.143Z,59.40
2019-02-02T08:06:16.077Z,59.67
2019-02-02T08:08:45.597Z,56.27
2019-02-02T08:11:15.130Z,62.47
2019-02-02T08:13:44.631Z,59.60
2019-02-02T08:16:14.146Z,60.00
2019-02-02T08:18:43.690Z,60.33
2019-02-02T08:21:13.225Z,56.87
2019-02-02T08:23:42.769Z,59.93
2019-02-02T08:26:12.282Z,59.00
2019-02-02T08:28:41.807Z,56.63
2019-02-02T08:31:11.456Z,58.27
2019-02-02T08:33:41.012Z,58.67
2019-02-02T08:36:10.557Z,56.10
2019-02-02T08:38:40.237Z,60.43
2019-02-02T08:41:09.742Z,57.93
2019-02-02T08:43:39.264Z,57.10
2019-02-02T08:46:08.805Z,62.93
2019-02-02T08:48:38.312Z,59.23
2019-02-02T08:51:08.236Z,59.07
2019-02-02T08:53:37.748Z,59.57
2019-02-02T08:56:07.405Z,55.50
2019-02-02T08:58:36.965Z,53.60
2019-02-02T09:01:06.481Z,50.80
2019-02-02T09:03:36.045Z,53.53
2019-02-02T09:06:05.926Z,52.70
2019-02-02T09:08:35.727Z,53.40
2019-02-02T09:11:05.325Z,53.33
2019-02-02T09:13:36.763Z,51.93
2019-02-02T09:16:05.965Z,54.97
2019-02-02T09:18:35.919Z,54.70
2019-02-02T09:21:05.875Z,53.17
2019-02-02T09:23:35.505Z,53.17
2019-02-02T09:26:05.024Z,57.37
2019-02-02T09:28:34.559Z,55.40
2019-02-02T09:31:15.201Z,52.37
2019-02-02T09:33:36.030Z,53.73
2019-02-02T09:36:05.790Z,55.30
2019-02-02T09:38:35.296Z,55.57
2019-02-02T09:41:04.802Z,58.67
2019-02-02T09:43:34.332Z,54.17
2019-02-02T09:46:04.798Z,57.37
2019-02-02T09:48:34.382Z,54.80
2019-02-02T09:51:04.026Z,55.50
2019-02-02T09:53:33.895Z,54.47
2019-02-02T09:56:03.462Z,57.63
2019-02-02T09:58:33.092Z,53.57
2019-02-02T10:01:02.667Z,56.20
2019-02-02T10:03:32.140Z,53.90
2019-02-02T10:06:01.641Z,54.90
2019-02-02T10:08:31.200Z,53.43
2019-02-02T10:11:00.688Z,54.73
2019-02-02T10:13:30.185Z,60.50
2019-02-02T10:15:59.725Z,52.97
2019-02-02T10:18:29.570Z,53.73
2019-02-02T10:21:04.002Z,53.90
2019-02-02T10:23:30.375Z,54.07
2019-02-02T10:26:00.635Z,57.77
2019-02-02T10:28:30.166Z,53.77
2019-02-02T10:30:59.695Z,54.57
2019-02-02T10:33:29.256Z,55.47
2019-02-02T10:35:58.891Z,52.97
2019-02-02T10:38:28.352Z,51.10
2019-02-02T10:40:57.894Z,54.43
2019-02-02T10:43:27.412Z,53.43
2019-02-02T10:45:56.895Z,52.47
2019-02-02T10:48:26.708Z,55.67
2019-02-02T10:51:02.247Z,53.27
2019-02-02T10:53:32.210Z,52.50
2019-02-02T10:56:07.738Z,53.23
2019-02-02T10:58:37.911Z,53.07
2019-02-02T11:01:09.464Z,52.13
2019-02-02T11:03:39.049Z,52.13
2019-02-02T11:06:09.209Z,52.23
2019-02-02T11:08:39.156Z,52.73
2019-02-02T11:11:10.375Z,53.10
2019-02-02T11:13:39.978Z,52.60
2019-02-02T11:16:10.082Z,54.13
2019-02-02T11:18:40.117Z,53.17
2019-02-02T11:21:09.729Z,57.23
2019-02-02T11:23:39.298Z,53.20
2019-02-02T11:26:08.959Z,57.40
2019-02-02T11:28:38.551Z,58.40
2019-02-02T11:31:08.439Z,53.63
2019-02-02T11:33:38.372Z,56.80
2019-02-02T11:36:08.029Z,52.70
2019-02-02T11:38:38.328Z,53.17
2019-02-02T11:41:07.854Z,54.23
2019-02-02T11:43:37.378Z,54.30
2019-02-02T11:46:07.149Z,55.10
2019-02-02T11:48:36.638Z,55.43
2019-02-02T11:51:06.163Z,55.23
2019-02-02T11:53:37.512Z,56.10
2019-02-02T11:56:06.840Z,54.70
2019-02-02T11:58:36.471Z,52.70
2019-02-02T12:01:06.397Z,53.03
2019-02-02T12:03:36.248Z,52.80
2019-02-02T12:06:06.081Z,54.33
2019-02-02T12:08:35.613Z,54.73
2019-02-02T12:11:05.183Z,53.00
2019-02-02T12:13:34.728Z,58.57
2019-02-02T12:16:04.240Z,55.47
2019-02-02T12:18:33.753Z,55.07
2019-02-02T12:21:03.372Z,58.57
2019-02-02T12:23:32.967Z,54.33
2019-02-02T12:26:02.614Z,55.63
2019-02-02T12:28:32.249Z,55.40
2019-02-02T12:31:02.072Z,53.30
2019-02-02T12:33:31.912Z,54.93
2019-02-02T12:36:01.479Z,52.37
2019-02-02T12:38:31.047Z,58.67
2019-02-02T12:41:00.538Z,59.83
2019-02-02T12:43:30.225Z,59.10
2019-02-02T12:45:59.756Z,61.10
2019-02-02T12:48:32.184Z,60.43
2019-02-02T12:51:00.461Z,59.20
2019-02-02T12:53:29.926Z,58.60
2019-02-02T12:55:59.895Z,60.87
2019-02-02T12:58:29.484Z,59.20
2019-02-02T13:00:58.986Z,55.90
2019-02-02T13:03:28.532Z,58.77
2019-02-02T13:05:58.074Z,55.70
2019-02-02T13:08:27.944Z,56.27
2019-02-02T13:10:57.982Z,58.37
2019-02-02T13:13:28.317Z,59.57
2019-02-02T13:15:58.212Z,58.30
2019-02-02T13:18:27.757Z,54.40
2019-02-02T13:20:57.242Z,54.17
2019-02-02T13:23:27.224Z,56.00
2019-02-02T13:26:05.039Z,55.73
2019-02-02T13:28:28.644Z,52.97
2019-02-02T13:30:58.592Z,56.37
2019-02-02T13:33:28.052Z,57.93
2019-02-02T13:35:57.619Z,54.60
2019-02-02T13:38:27.191Z,53.47
2019-02-02T13:40:56.664Z,54.90
2019-02-02T13:43:26.186Z,53.17
2019-02-02T13:45:56.084Z,53.73
2019-02-02T13:48:25.648Z,54.83
2019-02-02T13:50:55.146Z,52.90
2019-02-02T13:53:25.988Z,52.80
2019-02-02T13:55:55.594Z,55.47
2019-02-02T13:58:25.259Z,53.80
2019-02-02T14:00:55.147Z,56.23
2019-02-02T14:03:24.656Z,54.17
2019-02-02T14:05:54.401Z,55.17
2019-02-02T14:08:24.289Z,54.70
2019-02-02T14:10:54.190Z,54.13
2019-02-02T14:13:23.675Z,55.77
2019-02-02T14:15:53.355Z,56.70
2019-02-02T14:18:22.881Z,56.07
2019-02-02T14:20:52.461Z,57.47
2019-02-02T14:23:22.417Z,57.43
2019-02-02T14:25:52.014Z,54.20
2019-02-02T14:28:28.537Z,53.47
2019-02-02T14:30:53.769Z,55.43
2019-02-02T14:33:23.548Z,53.90
2019-02-02T14:35:53.555Z,53.43
2019-02-02T14:38:23.080Z,53.90
2019-02-02T14:40:52.782Z,52.97
2019-02-02T14:43:22.696Z,50.77
2019-02-02T14:45:52.979Z,60.63
2019-02-02T14:48:22.468Z,57.20
2019-02-02T14:50:52.061Z,55.73
2019-02-02T14:53:21.527Z,53.10
2019-02-02T14:55:51.785Z,57.63
2019-02-02T14:58:21.662Z,55.13
2019-02-02T15:00:53.853Z,56.60
2019-02-02T15:03:25.824Z,56.00
2019-02-02T15:05:53.802Z,60.30
2019-02-02T15:08:23.918Z,58.97
2019-02-02T15:10:53.388Z,59.90
2019-02-02T15:13:23.191Z,61.70
2019-02-02T15:15:53.078Z,56.40
2019-02-02T15:18:22.640Z,58.43
2019-02-02T15:20:52.463Z,57.30
2019-02-02T15:23:22.747Z,58.63
2019-02-02T15:25:53.289Z,58.77
2019-02-02T15:28:22.848Z,58.73
2019-02-02T15:30:54.135Z,55.87
2019-02-02T15:33:24.405Z,59.20
2019-02-02T15:35:53.925Z,56.93
2019-02-02T15:38:23.903Z,54.07
2019-02-02T15:40:59.352Z,56.77
2019-02-02T15:43:24.875Z,54.93
2019-02-02T15:45:54.405Z,54.37
2019-02-02T15:48:23.979Z,54.33
2019-02-02T15:50:54.136Z,49.90
2019-02-02T15:53:23.680Z,51.77
2019-02-02T15:55:53.640Z,52.77
2019-02-02T15:58:23.516Z,50.03
2019-02-02T16:00:53.063Z,50.53
2019-02-02T16:03:22.608Z,52.07
2019-02-02T16:05:52.296Z,54.50
2019-02-02T16:08:21.817Z,49.47
2019-02-02T16:10:51.305Z,53.40
2019-02-02T16:13:20.825Z,50.57
2019-02-02T16:15:50.753Z,52.70
2019-02-02T16:18:20.846Z,52.47
2019-02-02T16:20:50.360Z,54.30
2019-02-02T16:23:19.853Z,57.37
2019-02-02T16:25:49.423Z,53.10
2019-02-02T16:28:19.267Z,58.77
2019-02-02T16:30:48.787Z,56.17
2019-02-02T16:33:18.757Z,61.17
2019-02-02T16:35:48.251Z,56.57
2019-02-02T16:38:17.739Z,60.37
2019-02-02T16:40:47.295Z,58.63
2019-02-02T16:43:17.732Z,62.83
2019-02-02T16:45:47.673Z,61.47
2019-02-02T16:48:17.348Z,62.83
2019-02-02T16:50:46.842Z,62.90
2019-02-02T16:53:16.353Z,61.80
2019-02-02T16:55:45.848Z,68.53
2019-02-02T16:58:15.338Z,67.60
2019-02-02T17:00:45.692Z,73.23
2019-02-02T17:03:15.311Z,67.90
2019-02-02T17:05:44.813Z,73.80
2019-02-02T17:08:14.732Z,73.87
2019-02-02T17:10:44.303Z,77.73
2019-02-02T17:13:14.158Z,73.40
2019-02-02T17:15:44.051Z,103.85
2019-02-02T17:18:13.535Z,83.30
2019-02-02T17:20:44.899Z,79.07
2019-02-02T17:23:14.501Z,74.30
2019-02-02T17:25:44.062Z,74.80
2019-02-02T17:28:13.610Z,74.60
2019-02-02T17:30:43.146Z,76.43
2019-02-02T17:33:15.161Z,76.33
2019-02-02T17:35:45.435Z,74.83
2019-02-02T17:38:14.951Z,81.00
2019-02-02T17:40:44.799Z,78.13
2019-02-02T17:43:14.288Z,81.30
2019-02-02T17:45:43.847Z,78.30
2019-02-02T17:48:13.760Z,78.50
2019-02-02T17:50:43.367Z,79.17
2019-02-02T17:53:12.901Z,80.27
2019-02-02T17:55:42.484Z,80.90
2019-02-02T17:58:13.511Z,80.43
2019-02-02T18:00:48.020Z,80.77
2019-02-02T18:03:17.551Z,77.97
2019-02-02T18:05:47.754Z,74.97
2019-02-02T18:08:17.696Z,78.80
2019-02-02T18:10:47.593Z,77.33
2019-02-02T18:13:17.641Z,81.43
2019-02-02T18:15:48.601Z,81.30
2019-02-02T18:18:18.426Z,81.23
2019-02-02T18:20:47.923Z,82.13
2019-02-02T18:23:18.420Z,80.03
2019-02-02T18:25:48.617Z,81.03
2019-02-02T18:28:18.964Z,80.73
2019-02-02T18:30:48.469Z,87.40
2019-02-02T18:33:17.956Z,81.00
2019-02-02T18:35:47.495Z,77.73
2019-02-02T18:38:16.982Z,76.93
2019-02-02T18:40:46.563Z,78.27
2019-02-02T18:43:16.037Z,73.37
2019-02-02T18:45:45.557Z,72.97
2019-02-02T18:48:15.250Z,73.80
2019-02-02T18:50:44.745Z,76.57
2019-02-02T18:53:14.523Z,80.03
2019-02-02T18:56:04.765Z,74.97
2019-02-02T18:58:37.084Z,72.27
2019-02-02T19:01:06.984Z,74.00
2019-02-02T19:03:36.498Z,75.47
2019-02-02T19:06:06.259Z,78.77
2019-02-02T19:08:35.764Z,78.80
2019-02-02T19:11:06.087Z,78.40
2019-02-02T19:13:35.589Z,78.57
2019-02-02T19:16:05.847Z,77.20
2019-02-02T19:18:35.773Z,76.30
2019-02-02T19:21:06.132Z,78.50
2019-02-02T19:23:35.650Z,78.80
2019-02-02T19:26:05.501Z,73.30
2019-02-02T19:28:40.117Z,81.17
2019-02-02T19:31:06.154Z,81.17
2019-02-02T19:33:35.655Z,75.13
2019-02-02T19:36:05.194Z,80.70
2019-02-02T19:38:34.848Z,78.27
2019-02-02T19:41:05.239Z,82.27
2019-02-02T19:43:34.770Z,76.33
2019-02-02T19:46:04.673Z,80.93
2019-02-02T19:48:34.932Z,78.00
2019-02-02T19:51:04.463Z,78.80
2019-02-02T19:53:34.078Z,85.10
2019-02-02T19:56:03.602Z,83.20
2019-02-02T19:58:33.454Z,80.60
2019-02-02T20:01:02.975Z,82.10
2019-02-02T20:03:32.486Z,84.33
2019-02-02T20:06:02.012Z,83.77
2019-02-02T20:08:31.560Z,87.57
2019-02-02T20:11:01.433Z,82.07
2019-02-02T20:13:31.457Z,79.67
2019-02-02T20:16:03.929Z,79.53
2019-02-02T20:18:32.094Z,84.80
2019-02-02T20:21:01.938Z,84.27
2019-02-02T20:23:31.446Z,80.87
2019-02-02T20:26:01.032Z,84.90
2019-02-02T20:28:30.533Z,85.23
2019-02-02T20:31:00.039Z,86.27
2019-02-02T20:33:29.556Z,88.73
2019-02-02T20:35:59.699Z,87.17
2019-02-02T20:38:29.395Z,87.33
2019-02-02T20:40:59.903Z,83.37
2019-02-02T20:43:29.446Z,86.00
2019-02-02T20:45:58.992Z,87.60
2019-02-02T20:48:28.649Z,81.43
2019-02-02T20:50:58.162Z,85.70
2019-02-02T20:53:27.648Z,82.97
2019-02-02T20:55:57.232Z,78.73
2019-02-02T20:58:26.718Z,88.77
2019-02-02T21:00:56.241Z,80.87
2019-02-02T21:03:25.759Z,82.57
2019-02-02T21:05:55.260Z,83.87
2019-02-02T21:08:24.768Z,81.60
2019-02-02T21:10:54.268Z,81.60
2019-02-02T21:13:23.778Z,78.37
2019-02-02T21:15:56.225Z,73.63
2019-02-02T21:18:25.774Z,75.90
2019-02-02T21:20:57.729Z,77.37
2019-02-02T21:23:27.229Z,81.70
2019-02-02T21:25:56.797Z,82.97
2019-02-02T21:28:26.412Z,80.57
2019-02-02T21:30:55.979Z,84.93
2019-02-02T21:33:25.575Z,88.90
2019-02-02T21:36:03.642Z,81.60
2019-02-02T21:38:26.580Z,84.00
2019-02-02T21:40:56.323Z,80.40
2019-02-02T21:43:25.861Z,79.17
2019-02-02T21:45:55.369Z,82.37
2019-02-02T21:48:24.877Z,82.63
2019-02-02T21:50:54.393Z,80.83
2019-02-02T21:53:23.950Z,83.37
2019-02-02T21:55:53.709Z,82.97
2019-02-02T21:58:23.616Z,86.10
2019-02-02T22:00:53.142Z,85.90
2019-02-02T22:03:22.652Z,79.47
2019-02-02T22:05:52.175Z,91.77
2019-02-02T22:08:21.993Z,87.77
2019-02-02T22:10:51.701Z,88.00
2019-02-02T22:13:21.229Z,86.63
2019-02-02T22:15:51.229Z,85.77
2019-02-02T22:18:21.803Z,86.53
2019-02-02T22:20:51.778Z,88.23
2019-02-02T22:23:21.344Z,83.53
2019-02-02T22:25:50.868Z,87.93
2019-02-02T22:28:20.537Z,81.23
2019-02-02T22:30:50.110Z,82.77
2019-02-02T22:33:19.648Z,82.87
2019-02-02T22:35:49.328Z,84.97
2019-02-02T22:38:18.835Z,88.43
2019-02-02T22:40:48.390Z,85.40
2019-02-02T22:43:17.906Z,82.90
2019-02-02T22:45:47.813Z,81.07
2019-02-02T22:48:17.369Z,79.37
2019-02-02T22:50:46.869Z,87.03
2019-02-02T22:53:16.832Z,83.50
2019-02-02T22:55:46.362Z,85.40
2019-02-02T22:58:15.929Z,82.80
2019-02-02T23:01:06.839Z,83.30
2019-02-02T23:03:39.691Z,82.47
2019-02-02T23:06:39.610Z,78.87
2019-02-02T23:09:43.912Z,77.77
2019-02-02T23:12:31.625Z,79.37
2019-02-02T23:15:29.169Z,78.50
2019-02-02T23:17:58.978Z,75.40
2019-02-02T23:20:28.554Z,73.77
2019-02-02T23:22:58.089Z,74.47
2019-02-02T23:25:27.625Z,74.17
2019-02-02T23:27:57.597Z,71.07
2019-02-02T23:30:27.451Z,72.37
2019-02-02T23:32:57.069Z,73.43
2019-02-02T23:35:26.597Z,81.00
2019-02-02T23:37:56.127Z,79.90
2019-02-02T23:40:25.712Z,78.07
2019-02-02T23:42:55.331Z,75.77
2019-02-02T23:45:24.862Z,77.30
2019-02-02T23:47:54.388Z,79.87
2019-02-02T23:50:23.952Z,74.93
2019-02-02T23:52:53.834Z,73.80
2019-02-02T23:55:23.586Z,72.50
2019-02-02T23:57:53.108Z,76.30
